createdAt,value
2022-10-05T00:04:09.168Z,10.4
2022-10-05T00:09:57.713Z,10.5
2022-10-05T00:15:46.620Z,12.2
2022-10-05T00:21:35.535Z,11.8
2022-10-05T00:27:25.479Z,11.3
2022-10-05T00:33:13.806Z,11.2
2022-10-05T00:39:02.055Z,11.5
2022-10-05T00:44:50.838Z,10.7
2022-10-05T00:50:40.344Z,10.7
2022-10-05T00:56:28.890Z,12
2022-10-05T01:02:20.165Z,12.4
2022-10-05T01:08:11.838Z,11.7
2022-10-05T01:14:00.544Z,12
2022-10-05T01:19:49.214Z,12.3
2022-10-05T01:25:37.470Z,13.7
2022-10-05T01:31:27.185Z,13.2
2022-10-05T01:37:16.907Z,11.6
2022-10-05T01:43:05.473Z,11.7
2022-10-05T01:48:54.005Z,12.6
2022-10-05T01:54:44.042Z,12.5
2022-10-05T02:00:37.335Z,11.9
2022-10-05T02:06:26.032Z,12
2022-10-05T02:12:21.434Z,11.9
2022-10-05T02:18:14.123Z,12.2
2022-10-05T02:24:05.224Z,12.7
2022-10-05T02:29:54.655Z,12.7
2022-10-05T02:35:48.720Z,12.5
2022-10-05T02:41:38.924Z,12.7
2022-10-05T02:47:28.820Z,11.7
2022-10-05T02:53:17.811Z,13.1
2022-10-05T02:59:08.400Z,12.9
2022-10-05T03:05:06.778Z,13.6
2022-10-05T03:10:55.465Z,15.1
2022-10-05T03:16:47.627Z,14.8
2022-10-05T03:22:36.840Z,15
2022-10-05T03:28:26.644Z,14.3
2022-10-05T03:34:16.359Z,13.3
2022-10-05T03:40:05.674Z,15
2022-10-05T03:45:56.331Z,15.4
2022-10-05T03:51:45.654Z,15.3
2022-10-05T03:57:35.268Z,16
2022-10-05T04:03:24.714Z,16.1
2022-10-05T04:09:21.938Z,16.1
2022-10-05T04:15:27.662Z,16.9
2022-10-05T04:21:25.655Z,16.5
2022-10-05T04:27:17.576Z,18.1
2022-10-05T04:33:09.912Z,17.7
2022-10-05T04:38:59.740Z,16.4
2022-10-05T04:44:53.115Z,16.1
2022-10-05T04:50:44.946Z,16.2
2022-10-05T04:56:35.390Z,17.7
2022-10-05T05:02:24.416Z,17.6
2022-10-05T05:08:15.071Z,17.8
2022-10-05T05:14:06.366Z,18.5
2022-10-05T05:19:56.623Z,18.2
2022-10-05T05:25:48.596Z,18.4
2022-10-05T05:31:38.461Z,17.3
2022-10-05T05:37:28.385Z,17.5
2022-10-05T05:43:18.785Z,17.4
2022-10-05T05:49:09.722Z,17.5
2022-10-05T05:54:59.471Z,18.4
2022-10-05T06:00:52.647Z,19.8
2022-10-05T06:06:41.778Z,20
2022-10-05T06:12:30.406Z,19.9
2022-10-05T06:18:19.236Z,19.9
2022-10-05T06:24:09.943Z,20.1
2022-10-05T06:29:59.693Z,19.2
2022-10-05T06:35:50.186Z,20.2
2022-10-05T06:41:39.936Z,22
2022-10-05T06:47:30.468Z,23.1
2022-10-05T06:53:19.680Z,25.2
2022-10-05T06:59:09.906Z,24.6
2022-10-05T07:04:59.064Z,23.3
2022-10-05T07:10:49.997Z,22.7
2022-10-05T07:16:40.309Z,21.9
2022-10-05T07:22:39.397Z,22.1
2022-10-05T07:28:29.295Z,24.1
2022-10-05T07:34:20.138Z,20.3
2022-10-05T07:40:10.538Z,19.6
2022-10-05T07:46:02.394Z,18.3
2022-10-05T07:51:54.123Z,19.5
2022-10-05T07:57:44.239Z,17.7
2022-10-05T08:03:34.479Z,17.3
2022-10-05T08:09:25.115Z,16.7
2022-10-05T08:15:14.292Z,15.4
2022-10-05T08:21:04.152Z,14.8
2022-10-05T08:26:54.643Z,13.5
2022-10-05T08:32:44.404Z,13.8
2022-10-05T08:38:33.033Z,13.7
2022-10-05T08:44:22.745Z,12.4
2022-10-05T08:50:12.862Z,11.9
2022-10-05T08:56:06.512Z,11.3
2022-10-05T09:01:57.251Z,12.4
2022-10-05T09:07:47.530Z,9.1
2022-10-05T09:13:39.675Z,9
2022-10-05T09:19:29.615Z,8.6
2022-10-05T09:25:19.600Z,7.7
2022-10-05T09:31:11.280Z,7
2022-10-05T09:37:01.896Z,6.1
2022-10-05T09:42:52.757Z,6.1
2022-10-05T09:48:42.850Z,6
2022-10-05T09:54:32.898Z,5.5
2022-10-05T10:00:22.862Z,5.8
2022-10-05T10:06:14.405Z,5.5
2022-10-05T10:12:05.646Z,5.2
2022-10-05T10:17:57.061Z,6.6
2022-10-05T10:30:07.553Z,2.5
2022-10-05T10:36:10.748Z,2.3
2022-10-05T10:42:04.189Z,2.3
2022-10-05T10:47:56.492Z,2.6
2022-10-05T10:53:48.098Z,2.6
2022-10-05T10:59:41.151Z,2.4
2022-10-05T11:05:39.257Z,5.5
2022-10-05T11:11:30.907Z,2.8
2022-10-05T11:17:22.957Z,3.6
2022-10-05T11:23:14.810Z,2.9
2022-10-05T11:29:10.658Z,2.8
2022-10-05T11:35:01.179Z,2.6
2022-10-05T11:40:52.506Z,2.7
2022-10-05T11:46:49.180Z,2.6
2022-10-05T11:53:07.109Z,2.6
2022-10-05T11:58:57.362Z,2.5
2022-10-05T12:04:49.215Z,2.3
2022-10-05T12:10:41.499Z,2.5
2022-10-05T12:16:33.095Z,2.3
2022-10-05T12:22:26.646Z,2.8
2022-10-05T12:28:25.162Z,2.7
2022-10-05T12:34:31.964Z,2.7
2022-10-05T12:40:29.984Z,2.7
2022-10-05T12:46:34.881Z,2.8
2022-10-05T12:58:45.883Z,2.4
2022-10-05T13:04:55.965Z,2.7
2022-10-05T13:10:47.923Z,2.7
2022-10-05T13:16:42.260Z,2.6
2022-10-05T13:22:39.050Z,2.5
2022-10-05T13:28:31.171Z,2.5
2022-10-05T13:34:23.786Z,2.3
2022-10-05T13:40:16.934Z,2.2
2022-10-05T13:46:10.719Z,3.6
2022-10-05T13:52:04.134Z,2.4
2022-10-05T13:57:58.880Z,2.6
2022-10-05T14:03:49.522Z,2.7
2022-10-05T14:09:47.044Z,2.6
2022-10-05T14:15:50.155Z,2.6
2022-10-05T14:21:42.125Z,2.6
2022-10-05T14:27:33.204Z,2.6
2022-10-05T14:33:25.294Z,2.5
2022-10-05T14:39:23.987Z,2.9
2022-10-05T14:45:15.364Z,2.2
2022-10-05T14:51:05.430Z,2.5
2022-10-05T14:56:55.697Z,2.7
2022-10-05T15:02:46.932Z,3
2022-10-05T15:08:37.553Z,3.2
2022-10-05T15:14:30.633Z,2.6
2022-10-05T15:20:22.760Z,2.7
2022-10-05T15:26:13.536Z,2.9
2022-10-05T15:32:11.868Z,2.5
2022-10-05T15:38:01.134Z,2.9
2022-10-05T15:43:51.903Z,2.9
2022-10-05T15:49:42.286Z,2.9
2022-10-05T15:55:34.541Z,2.9
2022-10-05T16:01:25.184Z,2.8
2022-10-05T16:07:16.603Z,3
2022-10-05T16:13:08.374Z,2.9
2022-10-05T16:18:59.272Z,3.2
2022-10-05T16:24:48.400Z,3.2
2022-10-05T16:30:38.519Z,3
2022-10-05T16:36:28.938Z,3.1
2022-10-05T16:42:19.530Z,3.4
2022-10-05T16:48:10.161Z,5.2
2022-10-05T16:54:01.070Z,3.8
2022-10-05T16:59:51.470Z,3.9
2022-10-05T17:05:41.494Z,4
2022-10-05T17:11:31.639Z,4.1
2022-10-05T17:17:21.563Z,3.8
2022-10-05T17:23:11.486Z,4.8
2022-10-05T17:29:02.548Z,4.5
2022-10-05T17:34:52.545Z,5.6
2022-10-05T17:40:44.208Z,7.4
2022-10-05T17:46:34.635Z,5.9
2022-10-05T17:52:23.209Z,5.8
2022-10-05T17:58:15.127Z,6.1
2022-10-05T18:04:05.749Z,6
2022-10-05T18:09:56.180Z,6.5
2022-10-05T18:15:46.428Z,7.1
2022-10-05T18:21:35.589Z,7
2022-10-05T18:27:30.716Z,4.5
2022-10-05T18:33:22.254Z,4.1
2022-10-05T18:39:12.216Z,4.5
2022-10-05T18:45:03.283Z,3.3
2022-10-05T18:50:57.848Z,6.1
2022-10-05T18:56:49.877Z,4.2
2022-10-05T19:02:41.015Z,3.7
2022-10-05T19:08:32.927Z,3.4
2022-10-05T19:14:27.943Z,4.2
2022-10-05T19:20:17.544Z,5
2022-10-05T19:26:07.960Z,11.9
2022-10-05T19:31:58.407Z,8.8
2022-10-05T19:37:47.870Z,5.4
2022-10-05T19:43:38.591Z,4.3
2022-10-05T19:49:29.433Z,3.3
2022-10-05T19:55:21.026Z,4.7
2022-10-05T20:01:12.569Z,3.7
2022-10-05T20:07:06.601Z,3.4
2022-10-05T20:12:57.043Z,3.9
2022-10-05T20:18:46.601Z,3.7
2022-10-05T20:24:37.636Z,3.4
2022-10-05T20:30:27.567Z,3
2022-10-05T20:36:19.554Z,3.1
2022-10-05T20:42:09.439Z,3.3
2022-10-05T20:48:01.037Z,3.4
2022-10-05T20:53:52.927Z,2.9
2022-10-05T20:59:43.462Z,2.8
2022-10-05T21:05:34.142Z,3.1
2022-10-05T21:11:24.302Z,3.1
2022-10-05T21:17:14.899Z,2.7
2022-10-05T21:23:05.918Z,2.9
2022-10-05T21:28:58.317Z,2.9
2022-10-05T21:34:48.727Z,2.8
2022-10-05T21:40:39.885Z,3
2022-10-05T21:46:32.015Z,3.2
2022-10-05T21:52:25.488Z,3.1
2022-10-05T21:58:18.143Z,3.4
2022-10-05T22:04:10.672Z,3.4
2022-10-05T22:10:04.513Z,3.2
2022-10-05T22:15:57.068Z,3.3
2022-10-05T22:21:49.227Z,3.5
2022-10-05T22:27:40.643Z,3.2
2022-10-05T22:33:31.283Z,3.5
2022-10-05T22:39:21.661Z,3.3
2022-10-05T22:45:12.410Z,3.2
2022-10-05T22:51:04.567Z,3.6
2022-10-05T22:56:57.088Z,3.3
2022-10-05T23:02:47.826Z,2.9
2022-10-05T23:08:38.729Z,2.1
2022-10-05T23:14:29.405Z,1.2
2022-10-05T23:20:19.823Z,1
2022-10-05T23:26:11.005Z,1
2022-10-05T23:32:02.532Z,1
2022-10-05T23:37:53.326Z,0.8
2022-10-05T23:43:45.058Z,1.1
2022-10-05T23:49:37.024Z,0.7
2022-10-05T23:55:27.948Z,0.8
